Time;durP1;ratioP1;P1;durP2;ratioP2;P2;SDS_P1;SDS_P2;PMS_P1;PMS_P2;Temp;Humidity;BMP_temperature;BMP_pressure;BME280_temperature;BME280_humidity;BME280_pressure;Samples;Min_cycle;Max_cycle;Signal;HPM_P1;HPM_P2
2022/01/17 00:00:26;;;;;;;11.32;0.40;;;;;;;4.25;45.64;102464.72;5041590;28;20068;-73
2022/01/17 00:02:52;;;;;;;9.43;1.13;;;;;;;4.08;46.21;102467.13;5028534;28;20064;-71
2022/01/17 00:05:20;;;;;;;8.50;0.95;;;;;;;3.72;47.02;102462.34;5025386;28;20173;-70
2022/01/17 00:07:46;;;;;;;9.00;0.85;;;;;;;4.25;45.88;102480.25;5027426;28;20083;-71
2022/01/17 00:10:15;;;;;;;6.63;0.88;;;;;;;3.82;46.37;102474.53;5025347;28;20037;-70
2022/01/17 00:12:45;;;;;;;18.83;1.58;;;;;;;3.91;46.78;102472.06;5029006;28;20053;-70
2022/01/17 00:15:19;;;;;;;14.07;1.35;;;;;;;4.32;46.19;102471.75;5025791;28;20107;-70
2022/01/17 00:17:49;;;;;;;17.58;2.78;;;;;;;4.10;46.55;102464.56;5029678;28;20045;-70
2022/01/17 00:20:18;;;;;;;11.85;1.20;;;;;;;4.37;46.32;102459.72;5024233;28;20121;-69
2022/01/17 00:22:45;;;;;;;13.18;0.52;;;;;;;4.38;46.06;102471.78;5035690;28;20334;-69
2022/01/17 00:25:10;;;;;;;15.05;1.27;;;;;;;4.35;45.97;102464.00;5004624;28;20260;-70
2022/01/17 00:27:36;;;;;;;7.60;1.20;;;;;;;4.29;46.67;102455.28;5034406;28;20034;-69
2022/01/17 00:30:04;;;;;;;9.77;1.45;;;;;;;4.20;46.66;102454.31;5029062;28;20600;-71
2022/01/17 00:32:30;;;;;;;11.77;1.13;;;;;;;4.25;46.98;102451.78;5026998;28;20320;-70
2022/01/17 00:34:58;;;;;;;14.13;1.13;;;;;;;4.30;47.05;102457.91;5026444;28;20045;-70
2022/01/17 00:37:27;;;;;;;8.98;0.82;;;;;;;3.98;47.98;102439.38;5014600;28;20048;-70
2022/01/17 00:39:55;;;;;;;9.80;0.35;;;;;;;3.86;48.71;102450.44;5039562;28;20053;-70
2022/01/17 00:42:23;;;;;;;10.13;0.50;;;;;;;3.87;48.31;102447.00;5032187;28;20045;-69
2022/01/17 00:44:49;;;;;;;13.85;0.95;;;;;;;4.02;48.04;102452.38;5042397;28;20498;-69
2022/01/17 00:47:15;;;;;;;12.90;1.17;;;;;;;3.86;48.54;102460.81;5025771;28;20116;-70
2022/01/17 00:49:43;;;;;;;11.00;1.02;;;;;;;3.85;48.74;102453.91;5023797;28;20060;-70
2022/01/17 00:52:08;;;;;;;12.23;1.00;;;;;;;4.13;47.78;102449.94;5028082;28;20490;-70
2022/01/17 00:54:34;;;;;;;9.40;1.08;;;;;;;3.86;48.57;102447.88;5023975;28;20094;-69
2022/01/17 00:56:59;;;;;;;10.70;0.68;;;;;;;4.00;48.68;102448.91;5042234;28;20732;-69
2022/01/17 00:59:25;;;;;;;13.27;0.90;;;;;;;3.91;48.71;102441.03;5041268;28;20049;-70
2022/01/17 01:01:50;;;;;;;10.70;1.35;;;;;;;3.84;48.82;102444.38;5027930;28;20393;-71
2022/01/17 01:04:18;;;;;;;13.23;0.70;;;;;;;3.72;49.07;102428.72;5041108;28;20052;-71
2022/01/17 01:06:44;;;;;;;14.25;1.73;;;;;;;3.70;49.31;102417.47;5027805;28;20054;-71
2022/01/17 01:09:09;;;;;;;10.55;1.48;;;;;;;4.09;48.58;102424.00;5024099;28;20548;-71
2022/01/17 01:11:35;;;;;;;8.75;1.48;;;;;;;4.36;47.93;102421.75;5039870;28;20037;-71
2022/01/17 01:14:03;;;;;;;9.15;0.70;;;;;;;4.57;47.39;102435.75;5022712;28;20038;-71
2022/01/17 01:19:09;;;;;;;10.38;0.70;;;;;;;4.35;48.11;102458.81;5023148;28;20065;-71
2022/01/17 01:22:01;;;;;;;7.32;1.58;;;;;;;4.15;48.46;102457.72;5003973;28;20216;-71
2022/01/17 01:29:58;;;;;;;11.10;1.23;;;;;;;4.16;49.06;102439.63;5024932;28;20499;-72
2022/01/17 01:32:29;;;;;;;11.75;0.70;;;;;;;4.04;49.67;102436.88;5038635;28;20128;-72
2022/01/17 01:35:04;;;;;;;6.03;1.08;;;;;;;4.10;49.86;102438.69;5024079;28;20045;-67
2022/01/17 01:37:30;;;;;;;9.73;1.15;;;;;;;3.74;50.44;102451.16;5043702;28;20056;-66
2022/01/17 01:39:55;;;;;;;6.82;0.52;;;;;;;3.85;50.01;102463.34;5031583;28;20059;-67
2022/01/17 01:42:23;;;;;;;11.57;0.90;;;;;;;4.32;49.13;102452.72;5026171;28;20069;-66
2022/01/17 01:44:51;;;;;;;19.00;1.20;;;;;;;4.16;49.56;102464.63;5024549;28;20041;-67
2022/01/17 01:47:20;;;;;;;7.20;0.98;;;;;;;3.97;49.77;102468.72;5022893;28;20052;-66
2022/01/17 01:49:45;;;;;;;5.60;1.13;;;;;;;3.70;50.91;102464.91;5038507;28;20056;-66
2022/01/17 01:52:11;;;;;;;6.55;0.63;;;;;;;3.97;50.17;102472.16;5024964;28;20502;-66
2022/01/17 01:54:36;;;;;;;11.07;0.80;;;;;;;3.85;50.75;102442.66;5025227;28;20520;-67
2022/01/17 01:57:02;;;;;;;11.55;0.70;;;;;;;3.38;52.04;102447.19;5023202;28;20516;-66
2022/01/17 01:59:27;;;;;;;8.60;1.15;;;;;;;3.36;52.38;102453.19;5024833;28;20057;-67
2022/01/17 02:01:55;;;;;;;11.25;0.98;;;;;;;3.44;52.06;102451.56;5040115;28;20033;-66
2022/01/17 02:04:20;;;;;;;7.93;1.02;;;;;;;3.50;52.00;102455.97;5024327;28;20049;-66
2022/01/17 02:06:46;;;;;;;15.10;0.88;;;;;;;3.55;51.55;102449.16;5022659;28;20667;-67
2022/01/17 02:09:11;;;;;;;13.70;0.80;;;;;;;3.49;51.83;102437.03;5023248;28;20041;-71
2022/01/17 02:11:37;;;;;;;9.93;1.63;;;;;;;3.17;52.58;102441.66;5040641;28;20128;-73
2022/01/17 02:14:03;;;;;;;8.65;0.52;;;;;;;3.54;51.56;102437.94;5008512;28;20105;-71
2022/01/17 02:16:29;;;;;;;10.77;0.60;;;;;;;3.59;51.69;102428.53;5030802;28;20350;-71
2022/01/17 02:18:55;;;;;;;7.75;0.57;;;;;;;3.50;51.79;102435.31;5023298;28;20087;-72
2022/01/17 02:21:34;;;;;;;7.35;0.60;;;;;;;3.65;51.42;102447.56;5024659;28;20033;-72
2022/01/17 02:24:01;;;;;;;20.95;1.15;;;;;;;3.89;50.93;102460.81;5039420;28;20452;-72
2022/01/17 02:26:28;;;;;;;9.52;0.77;;;;;;;3.72;51.67;102449.41;5030907;28;20196;-73
2022/01/17 02:28:56;;;;;;;5.80;0.45;;;;;;;3.46;52.39;102473.16;5022210;28;20038;-72
2022/01/17 02:31:24;;;;;;;4.57;1.10;;;;;;;3.46;52.35;102477.47;5024630;28;20481;-72
2022/01/17 02:33:50;;;;;;;13.45;1.25;;;;;;;3.26;52.59;102471.94;5023270;28;20048;-72
2022/01/17 02:36:17;;;;;;;11.88;1.30;;;;;;;3.48;52.14;102474.06;5025529;28;20064;-73
2022/01/17 02:38:43;;;;;;;8.88;1.45;;;;;;;3.32;52.46;102452.28;5038518;28;20446;-72
2022/01/17 02:41:11;;;;;;;16.35;1.92;;;;;;;3.51;51.99;102463.75;5042684;28;20033;-73
2022/01/17 02:43:37;;;;;;;10.05;1.15;;;;;;;3.51;51.71;102442.19;5030729;28;20064;-71
2022/01/17 02:48:35;;;;;;;8.45;0.50;;;;;;;3.44;52.07;102435.22;5024708;28;20498;-73
2022/01/17 02:51:02;;;;;;;13.40;1.33;;;;;;;3.97;50.39;102442.84;5012240;28;20269;-73
2022/01/17 02:53:28;;;;;;;14.95;1.00;;;;;;;3.58;51.64;102444.91;5044879;28;20391;-73
2022/01/17 02:56:00;;;;;;;12.00;1.65;;;;;;;3.74;51.17;102427.03;5028265;28;20029;-72
2022/01/17 02:58:27;;;;;;;9.55;2.22;;;;;;;3.31;52.14;102441.91;5029392;28;20052;-72
2022/01/17 03:00:56;;;;;;;19.98;1.83;;;;;;;3.08;52.90;102444.97;5030665;28;20032;-72
2022/01/17 03:03:24;;;;;;;17.48;1.55;;;;;;;3.63;51.81;102451.84;5013635;28;20386;-72
2022/01/17 03:05:52;;;;;;;12.43;0.77;;;;;;;3.64;51.69;102463.94;5010644;28;20045;-72
2022/01/17 03:08:20;;;;;;;10.93;0.98;;;;;;;3.55;52.19;102450.03;5009152;28;20390;-71
2022/01/17 03:10:49;;;;;;;14.32;1.10;;;;;;;3.71;51.53;102461.44;5007501;28;20040;-72
2022/01/17 03:13:31;;;;;;;19.60;1.58;;;;;;;3.74;51.94;102461.50;5009448;28;20530;-72
2022/01/17 03:15:58;;;;;;;11.32;1.30;;;;;;;3.99;51.01;102467.00;5007771;28;20029;-72
2022/01/17 03:18:27;;;;;;;13.68;1.08;;;;;;;3.69;51.58;102451.94;5022571;28;20245;-70
2022/01/17 03:20:57;;;;;;;17.38;0.98;;;;;;;3.78;51.76;102467.56;5010066;28;20045;-69
2022/01/17 03:23:23;;;;;;;9.73;0.85;;;;;;;4.01;51.11;102461.00;5007298;28;20580;-72
2022/01/17 03:25:48;;;;;;;14.70;1.40;;;;;;;4.20;50.81;102461.22;5012666;28;20026;-70
2022/01/17 03:28:14;;;;;;;4.32;0.88;;;;;;;3.74;52.21;102464.09;4985575;28;20438;-70
2022/01/17 03:30:41;;;;;;;15.43;1.02;;;;;;;3.82;51.73;102474.53;5008861;28;20057;-70
2022/01/17 03:33:10;;;;;;;8.02;0.93;;;;;;;3.30;53.39;102458.25;5022203;28;20042;-69
2022/01/17 03:35:38;;;;;;;11.43;0.77;;;;;;;3.85;52.06;102453.91;5003488;28;20041;-70
2022/01/17 03:38:06;;;;;;;17.48;1.58;;;;;;;3.60;52.90;102463.00;5013382;28;20057;-70
2022/01/17 03:40:32;;;;;;;14.20;1.02;;;;;;;3.71;53.21;102453.69;5006483;28;20041;-69
2022/01/17 03:42:58;;;;;;;27.63;1.88;;;;;;;3.64;53.21;102446.69;4997156;28;20391;-70
2022/01/17 03:45:23;;;;;;;15.55;1.80;;;;;;;3.77;53.13;102440.00;5013154;28;20040;-69
2022/01/17 03:47:49;;;;;;;9.80;1.02;;;;;;;3.84;52.80;102448.69;5015761;28;20052;-70
2022/01/17 03:50:20;;;;;;;8.00;0.98;;;;;;;4.09;52.48;102447.28;5028823;28;20068;-69
2022/01/17 03:52:46;;;;;;;15.67;0.80;;;;;;;3.80;53.32;102442.59;5016338;28;20043;-69
2022/01/17 03:55:15;;;;;;;9.93;1.25;;;;;;;3.91;52.65;102442.75;5026391;28;20029;-69
2022/01/17 03:57:43;;;;;;;17.17;0.85;;;;;;;4.14;52.31;102445.63;5019000;28;20087;-69
2022/01/17 04:00:15;;;;;;;15.63;1.70;;;;;;;4.13;52.51;102447.34;5010691;28;20038;-69
2022/01/17 04:02:41;;;;;;;13.13;1.00;;;;;;;4.18;52.43;102437.91;5008965;28;20037;-68
2022/01/17 04:05:17;;;;;;;11.57;1.48;;;;;;;4.12;52.72;102436.97;5004701;28;20046;-69
2022/01/17 04:07:45;;;;;;;10.85;0.98;;;;;;;3.98;53.49;102439.38;5004422;28;20042;-70
2022/01/17 04:10:11;;;;;;;15.68;1.40;;;;;;;4.18;52.47;102452.56;5006723;28;20034;-69
2022/01/17 04:12:39;;;;;;;10.73;1.48;;;;;;;4.13;52.97;102438.72;5005294;28;20557;-70
2022/01/17 04:15:06;;;;;;;9.23;1.38;;;;;;;3.72;53.88;102446.81;5004664;28;20033;-70
2022/01/17 04:17:31;;;;;;;20.92;1.25;;;;;;;3.42;54.75;102442.94;5005640;28;20665;-69
2022/01/17 04:20:04;;;;;;;13.00;1.15;;;;;;;3.93;53.19;102441.91;5008418;28;20025;-70
2022/01/17 04:22:44;;;;;;;9.48;1.63;;;;;;;3.85;54.02;102422.88;5014401;28;20468;-70
2022/01/17 04:25:14;;;;;;;10.90;0.70;;;;;;;3.59;54.38;102425.09;5004486;28;20034;-70
2022/01/17 04:27:40;;;;;;;9.60;1.35;;;;;;;3.83;53.93;102424.56;5004409;28;20248;-70
2022/01/17 04:30:06;;;;;;;8.10;1.27;;;;;;;4.25;52.61;102417.28;5008552;28;20319;-69
2022/01/17 04:32:32;;;;;;;10.82;0.90;;;;;;;4.11;53.11;102432.66;5007923;28;20037;-70
2022/01/17 04:34:57;;;;;;;12.77;0.60;;;;;;;4.07;53.24;102423.97;5007689;28;20486;-69
2022/01/17 04:37:23;;;;;;;15.52;1.45;;;;;;;3.94;53.65;102432.44;5005594;28;20050;-69
2022/01/17 04:39:48;;;;;;;15.27;1.20;;;;;;;3.82;53.89;102433.16;5010096;28;20080;-69
2022/01/17 04:42:16;;;;;;;13.65;1.73;;;;;;;3.74;54.17;102438.22;4998674;28;20393;-69
2022/01/17 04:47:31;;;;;;;12.77;1.50;;;;;;;4.11;53.53;102432.66;5011830;28;20046;-69
2022/01/17 04:49:58;;;;;;;9.27;1.70;;;;;;;4.05;53.48;102432.56;5007527;28;20125;-69
2022/01/17 04:52:25;;;;;;;16.63;1.70;;;;;;;4.27;52.99;102429.38;5005046;28;20041;-69
2022/01/17 04:54:55;;;;;;;13.90;1.15;;;;;;;4.39;52.85;102426.94;5020767;28;21285;-69
2022/01/17 04:57:22;;;;;;;19.20;1.63;;;;;;;4.32;53.04;102422.56;5008076;28;20069;-72
2022/01/17 04:59:49;;;;;;;17.55;1.73;;;;;;;3.65;54.92;102419.13;4993583;28;20530;-67
2022/01/17 05:02:15;;;;;;;10.20;1.80;;;;;;;3.98;53.88;102423.88;5004977;28;20046;-70
2022/01/17 05:04:40;;;;;;;11.60;1.33;;;;;;;3.68;54.75;102414.88;5012149;28;20395;-70
2022/01/17 05:07:06;;;;;;;7.57;1.65;;;;;;;4.14;53.73;102423.22;5005398;28;20041;-71
2022/01/17 05:09:32;;;;;;;9.18;0.95;;;;;;;3.92;54.43;102408.28;5020448;28;20034;-71
2022/01/17 05:11:59;;;;;;;15.40;1.25;;;;;;;4.47;53.13;102408.03;5006813;28;20207;-70
2022/01/17 05:14:30;;;;;;;10.82;1.60;;;;;;;3.90;54.67;102408.25;5008828;28;20548;-72
2022/01/17 05:17:04;;;;;;;21.77;1.55;;;;;;;4.27;53.91;102411.25;5005066;28;20568;-72
2022/01/17 05:19:52;;;;;;;12.15;2.05;;;;;;;4.29;53.88;102406.97;5007055;28;20120;-72
2022/01/17 05:22:19;;;;;;;22.35;2.65;;;;;;;3.86;54.98;102396.13;5005622;28;20522;-73
2022/01/17 05:24:45;;;;;;;18.17;1.52;;;;;;;4.06;54.86;102400.69;5012091;28;20136;-72
2022/01/17 05:27:11;;;;;;;16.23;1.52;;;;;;;4.12;54.57;102403.31;5001225;28;20132;-72
2022/01/17 05:29:41;;;;;;;10.93;3.10;;;;;;;4.07;55.06;102408.44;5005508;28;20113;-74
2022/01/17 05:32:07;;;;;;;17.42;2.70;;;;;;;4.20;54.82;102415.50;5004949;28;20112;-73
2022/01/17 05:34:41;;;;;;;20.60;2.28;;;;;;;4.10;55.25;102410.22;5009437;28;20038;-69
2022/01/17 05:37:14;;;;;;;11.30;1.73;;;;;;;3.85;56.30;102391.81;5007585;28;20577;-69
2022/01/17 05:39:42;;;;;;;15.15;1.85;;;;;;;4.46;54.37;102408.88;5010770;28;20040;-69
2022/01/17 05:42:09;;;;;;;20.15;2.55;;;;;;;4.43;54.69;102394.16;5006627;28;20088;-69
2022/01/17 05:44:38;;;;;;;14.02;2.22;;;;;;;4.06;55.67;102395.50;5005758;28;20521;-69
2022/01/17 05:47:06;;;;;;;16.17;2.83;;;;;;;4.00;56.33;102391.13;5011456;28;20045;-74
2022/01/17 05:49:34;;;;;;;15.45;3.05;;;;;;;4.04;56.35;102381.69;5019938;28;20124;-71
2022/01/17 05:51:59;;;;;;;19.67;2.50;;;;;;;3.91;56.80;102376.34;5006211;28;20488;-72
2022/01/17 05:54:25;;;;;;;14.88;1.75;;;;;;;4.35;55.55;102378.56;5007764;28;20442;-71
2022/01/17 05:56:50;;;;;;;20.70;2.97;;;;;;;3.95;56.35;102361.75;5006591;28;20194;-71
2022/01/17 05:59:16;;;;;;;19.42;3.03;;;;;;;4.34;55.51;102373.38;5013433;28;20842;-72
2022/01/17 06:01:44;;;;;;;22.40;3.92;;;;;;;4.00;56.67;102368.69;5004505;28;20056;-71
2022/01/17 06:04:10;;;;;;;22.77;2.58;;;;;;;4.17;56.25;102396.50;5006729;28;20147;-71
2022/01/17 06:06:35;;;;;;;12.90;2.10;;;;;;;4.45;55.58;102401.97;5008266;28;20491;-73
2022/01/17 06:09:01;;;;;;;14.63;1.88;;;;;;;4.41;55.59;102414.88;5007360;28;20472;-73
2022/01/17 06:11:27;;;;;;;17.17;2.08;;;;;;;4.42;55.10;102432.13;5006518;28;20025;-73
2022/01/17 06:13:52;;;;;;;12.55;1.85;;;;;;;4.22;55.88;102444.00;5011928;28;20577;-73
2022/01/17 06:16:19;;;;;;;16.85;2.58;;;;;;;4.13;55.97;102454.25;5012300;28;20034;-73
2022/01/17 06:18:44;;;;;;;17.63;2.38;;;;;;;4.62;55.06;102450.47;5019899;28;20079;-73
2022/01/17 06:21:10;;;;;;;18.52;3.22;;;;;;;4.14;56.51;102462.03;5022514;28;20627;-71
2022/01/17 06:23:35;;;;;;;19.48;2.92;;;;;;;4.37;56.11;102441.59;5007119;28;20037;-73
2022/01/17 06:26:01;;;;;;;34.75;2.53;;;;;;;4.38;55.91;102426.91;5004602;28;20029;-72
2022/01/17 06:28:27;;;;;;;24.48;2.78;;;;;;;4.26;56.69;102419.88;5020798;28;20065;-71
2022/01/17 06:30:55;;;;;;;19.60;3.08;;;;;;;4.19;56.88;102425.84;5004799;28;20044;-71
2022/01/17 06:33:20;;;;;;;27.75;2.15;;;;;;;3.87;58.49;102431.47;5009806;28;20446;-72
2022/01/17 06:35:46;;;;;;;33.88;3.75;;;;;;;3.99;57.82;102420.44;5019658;28;20113;-72
2022/01/17 06:38:11;;;;;;;19.98;1.90;;;;;;;3.92;58.08;102416.91;5002942;28;20049;-68
2022/01/17 06:40:37;;;;;;;31.73;2.88;;;;;;;4.32;57.56;102440.69;5019814;28;20142;-69
2022/01/17 06:43:04;;;;;;;10.25;1.33;;;;;;;4.06;58.02;102437.78;5021049;28;20443;-69
2022/01/17 06:45:30;;;;;;;20.52;2.30;;;;;;;4.26;57.49;102445.78;5012392;28;20092;-68
2022/01/17 06:47:55;;;;;;;15.20;2.95;;;;;;;3.74;59.33;102445.13;5003857;28;20124;-70
2022/01/17 06:50:21;;;;;;;20.50;2.03;;;;;;;3.84;59.29;102446.97;5003789;28;20092;-70
2022/01/17 06:52:47;;;;;;;23.85;3.78;;;;;;;4.21;58.31;102478.50;5018441;28;20053;-70
2022/01/17 06:55:14;;;;;;;23.05;2.20;;;;;;;4.34;57.79;102498.53;5011621;28;20033;-70
2022/01/17 06:57:42;;;;;;;24.63;2.78;;;;;;;3.66;59.46;102498.44;5013442;28;20037;-71
2022/01/17 07:00:10;;;;;;;17.10;2.50;;;;;;;4.06;59.04;102519.72;5012640;28;20032;-69
2022/01/17 07:02:36;;;;;;;39.70;4.18;;;;;;;3.89;59.41;102527.22;5000693;28;20037;-67
2022/01/17 07:05:02;;;;;;;26.58;2.17;;;;;;;4.32;58.16;102536.47;5008430;28;20449;-69
2022/01/17 07:07:28;;;;;;;14.88;2.40;;;;;;;4.40;57.92;102527.03;5019916;28;20465;-70
2022/01/17 07:09:53;;;;;;;27.00;2.20;;;;;;;4.66;57.18;102507.50;5004421;28;20022;-70
2022/01/17 07:12:19;;;;;;;21.02;2.38;;;;;;;4.02;59.01;102501.53;5019699;28;20096;-73
2022/01/17 07:14:44;;;;;;;26.88;4.40;;;;;;;4.34;58.40;102501.09;5012819;28;20550;-71
2022/01/17 07:17:10;;;;;;;24.73;2.35;;;;;;;4.42;58.29;102502.03;5002294;28;20422;-69
2022/01/17 07:19:39;;;;;;;21.35;2.30;;;;;;;4.24;59.04;102488.03;5007481;28;20437;-72
2022/01/17 07:22:06;;;;;;;31.20;2.90;;;;;;;4.10;60.07;102501.66;5005495;28;20045;-70
2022/01/17 07:24:33;;;;;;;14.07;1.80;;;;;;;4.43;59.26;102495.13;5003956;28;20417;-71
2022/01/17 07:26:58;;;;;;;27.13;4.03;;;;;;;4.34;59.49;102501.09;5003451;28;22367;-70
2022/01/17 07:29:27;;;;;;;16.42;2.45;;;;;;;4.00;60.22;102499.78;5020555;28;20481;-71
2022/01/17 07:31:55;;;;;;;23.35;3.28;;;;;;;4.16;60.15;102485.31;5011525;28;20037;-72
2022/01/17 07:34:21;;;;;;;32.03;3.72;;;;;;;3.99;60.22;102485.13;5005909;28;20045;-73
2022/01/17 07:36:47;;;;;;;30.40;2.55;;;;;;;4.07;59.75;102490.38;5003112;28;20048;-70
2022/01/17 07:39:15;;;;;;;30.40;3.33;;;;;;;4.66;58.10;102492.81;5007292;28;20340;-70
2022/01/17 07:41:41;;;;;;;29.95;2.97;;;;;;;4.28;58.80;102484.63;5007949;28;20389;-70
2022/01/17 07:44:10;;;;;;;25.77;2.85;;;;;;;4.32;59.12;102495.03;5009472;28;20038;-70
2022/01/17 07:46:47;;;;;;;29.77;3.20;;;;;;;4.65;58.07;102491.06;5006228;28;20033;-71
2022/01/17 07:49:19;;;;;;;22.42;2.97;;;;;;;4.50;58.65;102507.34;5030674;28;20064;-71
2022/01/17 07:51:48;;;;;;;;;;;;;;;4.71;58.02;102514.47;5028475;28;20037;-70
2022/01/17 07:54:15;;;;;;;30.55;2.60;;;;;;;4.58;58.00;102520.34;5028827;28;19912;-71
2022/01/17 07:56:42;;;;;;;22.38;2.42;;;;;;;4.47;58.75;102516.78;5041331;28;20030;-71
2022/01/17 07:59:09;;;;;;;30.40;3.47;;;;;;;4.99;57.30;102517.38;5028797;28;20041;-70
2022/01/17 08:01:36;;;;;;;44.40;4.88;;;;;;;4.91;58.08;102519.88;5040546;28;20099;-71
2022/01/17 08:04:08;;;;;;;34.22;5.45;;;;;;;4.54;58.95;102513.41;5043253;28;20379;-70
2022/01/17 08:06:39;;;;;;;35.10;5.00;;;;;;;4.41;59.41;102523.63;5034144;28;20035;-71
2022/01/17 08:09:09;;;;;;;31.27;4.07;;;;;;;4.28;60.00;102521.72;5027963;28;20041;-73
2022/01/17 08:11:35;;;;;;;37.08;3.20;;;;;;;4.69;58.87;102516.16;5040413;28;20033;-70
2022/01/17 08:14:01;;;;;;;44.25;4.68;;;;;;;4.74;58.17;102511.88;5039819;28;20545;-72
2022/01/17 08:16:29;;;;;;;30.45;3.08;;;;;;;4.30;59.51;102512.28;5025497;28;20619;-72
2022/01/17 08:18:54;;;;;;;39.90;3.20;;;;;;;4.59;58.00;102502.25;5025055;28;20033;-71
2022/01/17 08:21:22;;;;;;;42.05;3.88;;;;;;;4.72;57.69;102502.38;5027243;28;20103;-70
2022/01/17 08:23:49;;;;;;;47.92;4.90;;;;;;;4.97;57.39;102525.13;5038279;28;20091;-72
2022/01/17 08:26:15;;;;;;;25.42;2.90;;;;;;;4.82;57.73;102512.00;5027919;28;20048;-71
2022/01/17 08:28:41;;;;;;;23.42;3.80;;;;;;;4.57;58.77;102514.31;5023530;28;20044;-71
2022/01/17 08:31:07;;;;;;;20.52;2.90;;;;;;;4.60;58.81;102536.78;5044901;28;20547;-71
2022/01/17 08:33:35;;;;;;;19.95;3.70;;;;;;;5.00;57.45;102534.66;5015521;28;20132;-70
2022/01/17 08:36:03;;;;;;;33.03;4.47;;;;;;;4.28;60.01;102532.09;5042392;28;20029;-73
2022/01/17 08:38:31;;;;;;;32.30;4.30;;;;;;;4.82;58.53;102528.38;5039554;28;20401;-70
2022/01/17 08:40:58;;;;;;;22.05;3.40;;;;;;;4.45;59.47;102524.50;5028027;28;20423;-72
2022/01/17 08:43:24;;;;;;;20.60;3.22;;;;;;;4.58;59.38;102525.53;5042624;28;20456;-70
2022/01/17 08:45:50;;;;;;;26.23;3.92;;;;;;;4.64;59.31;102530.78;5040681;28;20034;-71
2022/01/17 08:48:16;;;;;;;40.85;5.90;;;;;;;4.49;60.31;102533.19;5023228;28;20099;-70
2022/01/17 08:50:43;;;;;;;25.13;4.05;;;;;;;4.98;59.13;102546.72;5041292;28;20544;-72
2022/01/17 08:53:13;;;;;;;30.45;3.92;;;;;;;4.62;59.60;102551.47;5041115;28;20491;-70
2022/01/17 08:55:44;;;;;;;32.83;3.70;;;;;;;4.80;58.86;102534.41;5024091;28;20598;-72
2022/01/17 08:58:12;;;;;;;26.17;4.15;;;;;;;4.74;59.52;102548.16;5028048;28;20469;-70
2022/01/17 09:00:38;;;;;;;23.60;3.75;;;;;;;4.85;59.00;102540.50;5026541;28;20029;-70
2022/01/17 09:03:04;;;;;;;36.25;4.57;;;;;;;5.00;58.51;102542.44;5025800;28;20480;-72
2022/01/17 09:05:31;;;;;;;34.60;3.47;;;;;;;4.78;59.14;102549.06;5026086;28;20037;-73
2022/01/17 09:07:57;;;;;;;31.85;4.60;;;;;;;5.13;58.32;102551.19;5025091;28;20539;-72
2022/01/17 09:10:23;;;;;;;34.30;3.67;;;;;;;4.62;59.53;102553.22;5030478;28;20033;-71
2022/01/17 09:12:49;;;;;;;39.50;3.90;;;;;;;5.10;58.50;102565.00;5040972;28;20069;-72
2022/01/17 09:15:15;;;;;;;26.58;3.80;;;;;;;5.28;57.64;102587.66;5026128;28;20044;-70
2022/01/17 09:17:40;;;;;;;25.05;3.28;;;;;;;5.14;57.92;102577.13;5024482;28;20041;-70
2022/01/17 09:20:06;;;;;;;42.30;3.80;;;;;;;5.14;58.02;102568.47;5026824;28;20350;-70
2022/01/17 09:22:32;;;;;;;34.60;3.95;;;;;;;5.08;58.02;102577.06;5024516;28;20099;-70
2022/01/17 09:24:58;;;;;;;35.13;3.78;;;;;;;5.04;58.01;102575.31;5015726;28;20029;-71
2022/01/17 09:27:25;;;;;;;30.73;4.38;;;;;;;5.10;58.05;102572.78;5041102;28;20410;-71
2022/01/17 09:29:52;;;;;;;39.72;6.57;;;;;;;5.33;57.64;102572.13;5026213;28;20033;-70
2022/01/17 09:32:21;;;;;;;31.77;5.00;;;;;;;5.08;57.88;102589.13;5036901;28;20513;-70
2022/01/17 09:34:47;;;;;;;23.05;4.50;;;;;;;5.66;56.54;102597.50;5026573;28;20037;-70
2022/01/17 09:37:13;;;;;;;45.80;4.50;;;;;;;5.57;56.56;102600.88;5024245;28;20049;-70
2022/01/17 09:39:39;;;;;;;24.95;3.50;;;;;;;5.63;56.35;102611.28;5025550;28;20029;-70
2022/01/17 09:42:09;;;;;;;37.10;4.35;;;;;;;5.44;56.77;102614.59;5029281;28;20536;-70
2022/01/17 09:44:38;;;;;;;33.28;4.75;;;;;;;5.23;57.84;102623.91;5025357;28;20032;-71
2022/01/17 09:47:06;;;;;;;38.95;4.97;;;;;;;4.96;58.42;102602.84;5029126;28;20677;-71
2022/01/17 09:52:14;;;;;;;29.65;4.60;;;;;;;5.43;57.37;102602.47;5022279;28;20061;-71
2022/01/17 09:54:43;;;;;;;38.33;4.57;;;;;;;5.42;57.59;102604.19;5025214;28;20116;-69
2022/01/17 09:57:10;;;;;;;45.20;4.80;;;;;;;5.19;57.90;102591.00;5026755;28;20045;-71
2022/01/17 09:59:38;;;;;;;33.25;5.50;;;;;;;5.20;57.52;102623.84;5025323;28;20512;-70
2022/01/17 10:02:07;;;;;;;32.97;6.05;;;;;;;5.50;57.38;102627.59;5026217;28;20041;-71
2022/01/17 10:04:34;;;;;;;35.88;4.60;;;;;;;5.83;55.84;102645.19;5024206;28;20033;-70
2022/01/17 10:07:01;;;;;;;47.88;5.47;;;;;;;6.49;54.39;102643.06;5018529;28;20025;-70
2022/01/17 10:09:33;;;;;;;51.90;6.03;;;;;;;6.27;54.50;102636.84;5029475;28;20032;-70
2022/01/17 10:12:12;;;;;;;26.73;5.38;;;;;;;5.90;55.23;102614.09;5020235;28;20091;-70
2022/01/17 10:14:40;;;;;;;35.13;4.95;;;;;;;6.66;53.39;102618.88;5039253;28;20440;-72
2022/01/17 10:17:11;;;;;;;27.05;2.95;;;;;;;6.79;52.98;102612.88;5025608;28;20076;-71
2022/01/17 10:19:41;;;;;;;40.08;6.18;;;;;;;6.20;54.11;102629.03;5041352;28;20134;-71
2022/01/17 10:22:16;;;;;;;32.20;5.15;;;;;;;6.55;53.59;102652.63;5025479;28;20106;-72
2022/01/17 10:30:40;;;;;;;34.90;5.13;;;;;;;6.32;54.23;102701.81;5024336;28;20037;-70
2022/01/17 10:35:26;;;;;;;34.88;4.72;;;;;;;5.77;55.78;102686.66;5040447;28;20522;-72
2022/01/17 10:37:54;;;;;;;52.30;5.85;;;;;;;6.02;55.65;102666.97;5024089;28;20477;-70
2022/01/17 10:40:22;;;;;;;41.88;6.45;;;;;;;6.32;54.68;102670.66;5025505;28;20601;-69
2022/01/17 10:42:49;;;;;;;40.13;4.82;;;;;;;5.67;56.31;102680.50;5022716;28;20056;-71
2022/01/17 10:45:17;;;;;;;46.42;6.15;;;;;;;5.95;55.86;102690.25;5026958;28;20036;-69
2022/01/17 10:47:44;;;;;;;38.45;6.07;;;;;;;5.61;57.20;102701.22;5016749;28;20084;-70
2022/01/17 10:50:16;;;;;;;51.55;6.57;;;;;;;5.72;57.44;102722.06;5008570;28;20558;-71
2022/01/17 10:52:45;;;;;;;35.03;5.47;;;;;;;5.39;57.74;102735.53;5019518;28;20046;-69
2022/01/17 10:55:22;;;;;;;23.40;3.72;;;;;;;5.66;57.02;102732.38;5021309;28;20056;-69
2022/01/17 10:57:51;;;;;;;36.47;4.50;;;;;;;5.41;57.72;102731.22;5005357;28;20051;-70
2022/01/17 11:00:19;;;;;;;38.88;4.93;;;;;;;5.82;56.71;102731.69;5007084;28;20117;-70
2022/01/17 11:02:51;;;;;;;21.77;3.42;;;;;;;5.56;57.12;102720.16;5005359;28;20033;-70
2022/01/17 11:05:18;;;;;;;39.15;4.30;;;;;;;6.02;55.97;102711.09;5040601;28;20041;-69
2022/01/17 11:07:46;;;;;;;25.42;3.08;;;;;;;6.15;55.47;102718.97;5024112;28;20056;-70
2022/01/17 11:10:21;;;;;;;35.05;4.60;;;;;;;6.34;54.29;102733.00;5016653;28;20176;-70
2022/01/17 11:12:47;;;;;;;36.28;5.40;;;;;;;5.96;54.33;102749.09;5025728;28;20041;-70
2022/01/17 11:15:14;;;;;;;35.83;4.47;;;;;;;6.28;54.28;102752.00;5035178;28;20040;-70
2022/01/17 11:17:49;;;;;;;24.67;3.08;;;;;;;5.31;55.81;102747.56;5041148;28;20045;-70
2022/01/17 11:20:15;;;;;;;26.90;3.05;;;;;;;5.84;54.04;102739.50;5045043;28;20045;-70
2022/01/17 11:22:46;;;;;;;14.68;2.00;;;;;;;5.80;54.47;102732.53;5022620;28;20498;-70
2022/01/17 11:25:15;;;;;;;17.30;2.53;;;;;;;6.63;52.28;102744.47;5027434;28;20068;-70
2022/01/17 11:27:43;;;;;;;29.30;2.20;;;;;;;6.92;51.18;102751.56;5017237;28;20036;-70
2022/01/17 11:30:12;;;;;;;19.75;3.03;;;;;;;7.31;50.17;102750.00;5042300;28;20021;-70
2022/01/17 11:32:40;;;;;;;19.00;2.35;;;;;;;7.42;49.28;102747.44;5023917;28;20064;-69
2022/01/17 11:35:09;;;;;;;20.48;2.80;;;;;;;7.59;49.11;102742.34;5014689;28;20642;-69
2022/01/17 11:37:39;;;;;;;16.95;2.95;;;;;;;7.56;49.13;102745.81;5030342;28;20394;-70
2022/01/17 11:40:07;;;;;;;14.95;1.83;;;;;;;6.96;49.90;102750.72;5026815;28;20052;-69
2022/01/17 11:42:40;;;;;;;16.33;1.58;;;;;;;6.04;51.16;102769.09;5029481;28;20041;-69
2022/01/17 11:45:21;;;;;;;17.65;1.83;;;;;;;6.37;50.73;102780.63;5027296;28;20076;-69
2022/01/17 11:47:53;;;;;;;13.27;1.85;;;;;;;6.42;50.14;102778.97;5027812;28;20123;-70
2022/01/17 11:50:36;;;;;;;16.67;1.15;;;;;;;6.35;50.77;102778.91;5041739;28;20033;-70
2022/01/17 11:53:10;;;;;;;15.13;1.25;;;;;;;6.70;49.53;102797.34;5026915;28;20071;-70